Funk Island Bank: Past 24 Hour Conditions

 

Corner Brook

10:30 PM NDT 25 October 2014
This table is a summary of hourly weather conditions for the past 24 hours.
Date / Time
(NDT)
Wind(knots) Conditions Visibility(km) Pressure(kPa) Air tempC) Relative humidity(%) Dew pointC)
25 October 2014
22:30 NE 9 gust 17 N/A N/A 100.1 4 91 3
21:30 ENE 9 gust 15 N/A N/A 100.1 4 91 3
20:30 NE 7 N/A N/A 100.1 4 91 3
19:30 ENE 10 gust 15 N/A N/A 100.1 4 91 3
18:30 ENE 9 N/A N/A 100.1 4 90 3
17:30 NNE 8 gust 19 N/A N/A 100.1 5 90 3
16:30 NE 10 gust 17 N/A N/A 100.0 5 90 3
15:30 NE 8 gust 15 N/A N/A 100.0 5 89 4
14:30 ENE 10 gust 18 N/A N/A 100.0 5 88 3
13:30 ENE 14 gust 22 N/A N/A 100.0 5 89 3
12:30 E 11 gust 17 N/A N/A 100.0 5 90 4
11:30 ENE 8 gust 20 N/A N/A 100.0 5 89 3
10:30 ENE 16 gust 24 N/A N/A 100.0 5 89 3
9:30 ENE 15 gust 25 N/A N/A 100.1 5 89 3
8:30 ENE 19 gust 25 N/A N/A 100.1 5 89 3
7:30 ENE 15 gust 21 N/A N/A 100.1 4 89 3
6:30 NE 13 gust 22 N/A N/A 100.1 4 89 3
5:30 NE 10 gust 19 N/A N/A 100.1 4 92 3
4:30 ENE 7 gust 19 N/A N/A 100.1 4 89 3
3:30 ENE 10 gust 20 N/A N/A 100.1 4 90 3
2:30 ENE 11 gust 21 N/A N/A 100.2 5 91 3
1:30 E 8 gust 15 N/A N/A 100.2 5 90 3
0:30 ENE 7 gust 15 N/A N/A 100.3 5 91 4
24 October 2014
23:30 ENE 11 gust 17 N/A N/A 100.4 5 91 3
22:30 ENE 9 gust 19 N/A N/A 100.4 5 91 4
 
Map of Atlantic - Newfoundland marine weather areas Southwestern Grand Banks - 44138 Banquereau - 44139 Tail of the Bank - 44140 Nickerson Bank - 44251 Northeast Burgeo Bank - 44255 Blanc-Sablon Airport Cap Whittle Chevery Natashquan Airport Heath Point Miscou Island Grand Étang Ingonish Beach North Mountain St.Paul Island J.A. Douglas McCurdy Sydney Airport Charlottetown Airport East Point North Cape Argentia Bonavista Burgeo Cape Race Corner Brook Daniel's Harbour Englee Ferolle Point La Scie Port aux Basques Rocky Harbour Sagona Island St. Anthony Airport St. John's Int'l Airport St. Lawrence Stephenville Airport Twillingate Winterland Wreckhouse Cartwright Airport Mary's Harbour Grates Cove Pool's Island Marticot Island Long Pond Îles de la Madeleine Airport
Legend: buoyBuoy land stationLand Station